createdAt,value
2023-04-04T00:02:08.414Z,2.03
2023-04-04T00:04:36.378Z,2.17
2023-04-04T00:07:04.389Z,3.03
2023-04-04T00:09:33.910Z,2.17
2023-04-04T00:12:01.894Z,1.80
2023-04-04T00:14:29.837Z,2.00
2023-04-04T00:16:57.778Z,2.10
2023-04-04T00:19:26.029Z,2.40
2023-04-04T00:21:53.947Z,2.10
2023-04-04T00:24:22.095Z,2.13
2023-04-04T00:26:51.447Z,2.13
2023-04-04T00:29:19.368Z,2.20
2023-04-04T00:31:47.410Z,2.77
2023-04-04T00:34:15.451Z,2.27
2023-04-04T00:36:43.352Z,1.93
2023-04-04T00:39:11.594Z,2.10
2023-04-04T00:41:39.715Z,2.70
2023-04-04T00:44:09.043Z,3.00
2023-04-04T00:46:37.275Z,3.10
2023-04-04T00:49:05.212Z,3.00
2023-04-04T00:51:33.174Z,3.13
2023-04-04T00:54:01.880Z,3.67
2023-04-04T00:56:30.073Z,3.80
2023-04-04T01:01:44.065Z,4.63
2023-04-04T01:04:12.125Z,3.03
2023-04-04T01:06:40.078Z,4.73
2023-04-04T01:09:07.982Z,4.57
2023-04-04T01:11:35.941Z,4.10
2023-04-04T01:14:03.902Z,2.70
2023-04-04T01:16:31.937Z,4.80
2023-04-04T01:19:01.728Z,4.43
2023-04-04T01:21:29.653Z,4.40
2023-04-04T01:24:01.398Z,5.00
2023-04-04T01:26:30.941Z,5.83
2023-04-04T01:28:59.363Z,6.10
2023-04-04T01:31:29.183Z,6.40
2023-04-04T01:34:00.122Z,5.60
2023-04-04T01:36:31.340Z,5.80
2023-04-04T01:39:01.337Z,5.90
2023-04-04T01:41:30.790Z,5.57
2023-04-04T01:43:58.703Z,5.20
2023-04-04T01:46:27.287Z,4.90
2023-04-04T01:48:55.251Z,5.87
2023-04-04T01:51:23.865Z,6.33
2023-04-04T01:53:52.180Z,4.60
2023-04-04T01:56:20.303Z,4.53
2023-04-04T01:58:49.605Z,5.47
2023-04-04T02:01:17.577Z,4.53
2023-04-04T02:03:45.525Z,4.10
2023-04-04T02:06:13.548Z,5.80
2023-04-04T02:08:41.468Z,4.63
2023-04-04T02:11:09.416Z,4.70
2023-04-04T02:13:41.316Z,5.13
2023-04-04T02:16:10.747Z,5.00
2023-04-04T02:18:38.848Z,6.47
2023-04-04T02:21:06.860Z,5.90
2023-04-04T02:23:34.882Z,5.17
2023-04-04T02:26:02.804Z,4.30
2023-04-04T02:28:31.467Z,4.87
2023-04-04T02:31:02.031Z,5.73
2023-04-04T02:33:31.887Z,5.50
2023-04-04T02:36:00.015Z,5.40
2023-04-04T02:38:28.726Z,6.40
2023-04-04T02:40:56.688Z,6.00
2023-04-04T02:43:24.699Z,5.60
2023-04-04T02:45:52.777Z,5.37
2023-04-04T02:48:20.774Z,5.37
2023-04-04T02:50:50.074Z,5.33
2023-04-04T02:53:17.999Z,5.40
2023-04-04T02:55:46.225Z,5.40
2023-04-04T02:58:14.187Z,4.93
2023-04-04T03:00:42.446Z,5.57
2023-04-04T03:03:10.839Z,5.53
2023-04-04T03:05:38.862Z,5.80
2023-04-04T03:08:08.323Z,5.60
2023-04-04T03:10:36.250Z,5.07
2023-04-04T03:13:06.957Z,4.67
2023-04-04T03:15:35.156Z,4.70
2023-04-04T03:18:03.878Z,6.60
2023-04-04T03:20:33.143Z,5.00
2023-04-04T03:23:01.103Z,5.90
2023-04-04T03:25:30.573Z,7.60
2023-04-04T03:27:58.513Z,5.70
2023-04-04T03:30:26.563Z,5.90
2023-04-04T03:32:55.282Z,6.43
2023-04-04T03:35:23.354Z,6.47
2023-04-04T03:37:51.290Z,5.60
2023-04-04T03:40:19.213Z,5.27
2023-04-04T03:42:48.497Z,6.20
2023-04-04T03:45:16.648Z,5.13
2023-04-04T03:47:44.678Z,4.70
2023-04-04T03:50:12.720Z,4.77
2023-04-04T03:52:40.862Z,6.03
2023-04-04T03:55:09.942Z,5.40
2023-04-04T03:57:38.059Z,5.47
2023-04-04T04:00:08.840Z,4.33
2023-04-04T04:02:37.208Z,5.57
2023-04-04T04:05:05.598Z,4.60
2023-04-04T04:07:33.711Z,4.07
2023-04-04T04:10:01.718Z,4.27
2023-04-04T04:12:29.696Z,4.03
2023-04-04T04:14:57.666Z,3.00
2023-04-04T04:17:27.279Z,3.40
2023-04-04T04:19:55.313Z,2.93
2023-04-04T04:22:23.311Z,3.30
2023-04-04T04:24:51.326Z,3.17
2023-04-04T04:27:19.232Z,2.90
2023-04-04T04:29:47.318Z,3.13
2023-04-04T04:32:17.753Z,3.60
2023-04-04T04:34:47.100Z,3.00
2023-04-04T04:37:15.078Z,2.80
2023-04-04T04:39:43.034Z,3.30
2023-04-04T04:42:11.079Z,3.50
2023-04-04T04:44:39.005Z,3.53
2023-04-04T04:47:07.261Z,3.27
2023-04-04T04:49:35.422Z,3.13
2023-04-04T04:52:05.003Z,2.30
2023-04-04T04:54:32.972Z,2.83
2023-04-04T04:57:01.530Z,2.60
2023-04-04T04:59:29.641Z,2.90
2023-04-04T05:01:57.662Z,3.00
2023-04-04T05:04:25.610Z,2.70
2023-04-04T05:06:53.886Z,2.50
2023-04-04T05:09:23.721Z,3.77
2023-04-04T05:11:51.766Z,2.90
2023-04-04T05:14:20.270Z,3.17
2023-04-04T05:16:49.053Z,2.97
2023-04-04T05:19:17.336Z,2.70
2023-04-04T05:21:45.260Z,4.07
2023-04-04T05:24:13.366Z,3.47
2023-04-04T05:26:42.698Z,3.93
2023-04-04T05:29:10.640Z,2.97
2023-04-04T05:31:38.603Z,3.50
2023-04-04T05:34:08.424Z,3.13
2023-04-04T05:36:36.672Z,2.77
2023-04-04T05:39:05.290Z,3.03
2023-04-04T05:41:33.375Z,2.47
2023-04-04T05:44:03.001Z,2.93
2023-04-04T05:46:31.484Z,2.70
2023-04-04T05:48:59.532Z,2.43
2023-04-04T05:51:27.458Z,2.40
2023-04-04T05:53:55.399Z,1.90
2023-04-04T05:56:24.971Z,1.87
2023-04-04T05:58:53.196Z,1.90
2023-04-04T06:01:22.534Z,1.50
2023-04-04T06:03:50.570Z,1.33
2023-04-04T06:06:18.644Z,1.47
2023-04-04T06:08:53.508Z,2.10
2023-04-04T06:11:23.101Z,1.30
2023-04-04T06:13:51.287Z,1.80
2023-04-04T06:16:19.298Z,1.40
2023-04-04T06:18:48.814Z,1.33
2023-04-04T06:21:16.813Z,1.83
2023-04-04T06:23:44.792Z,1.50
2023-04-04T06:26:12.737Z,1.43
2023-04-04T06:28:48.249Z,1.40
2023-04-04T06:31:16.146Z,1.47
2023-04-04T06:33:44.099Z,2.23
2023-04-04T06:36:13.591Z,1.57
2023-04-04T06:38:41.536Z,2.60
2023-04-04T06:41:09.460Z,1.50
2023-04-04T06:43:37.466Z,1.80
2023-04-04T06:46:06.738Z,2.53
2023-04-04T06:48:34.674Z,2.33
2023-04-04T06:51:02.746Z,2.00
2023-04-04T06:53:32.364Z,2.00
2023-04-04T06:56:00.321Z,2.23
2023-04-04T06:58:28.261Z,2.30
2023-04-04T07:00:59.769Z,2.27
2023-04-04T07:03:27.947Z,2.90
2023-04-04T07:05:55.963Z,2.67
2023-04-04T07:08:24.102Z,3.00
2023-04-04T07:10:53.399Z,3.20
2023-04-04T07:13:21.597Z,3.47
2023-04-04T07:15:50.188Z,2.03
2023-04-04T07:18:18.121Z,1.87
2023-04-04T07:20:47.687Z,2.53
2023-04-04T07:23:16.885Z,1.63
2023-04-04T07:25:44.823Z,1.50
2023-04-04T07:28:14.155Z,1.20
2023-04-04T07:30:42.445Z,1.07
2023-04-04T07:33:10.774Z,1.60
2023-04-04T07:35:38.880Z,1.30
2023-04-04T07:38:06.875Z,1.57
2023-04-04T07:40:34.842Z,1.30
2023-04-04T07:43:02.805Z,1.20
2023-04-04T07:45:32.144Z,1.23
2023-04-04T07:48:00.110Z,1.83
2023-04-04T07:50:28.132Z,1.70
2023-04-04T07:52:56.197Z,1.00
2023-04-04T07:55:25.496Z,2.57
2023-04-04T07:57:53.638Z,1.20
2023-04-04T08:00:22.748Z,2.20
2023-04-04T08:02:54.585Z,1.60
2023-04-04T08:05:22.627Z,1.27
2023-04-04T08:07:50.622Z,1.40
2023-04-04T08:10:19.191Z,0.97
2023-04-04T08:12:47.320Z,1.97
2023-04-04T08:15:15.244Z,1.60
2023-04-04T08:17:44.425Z,1.27
2023-04-04T08:20:14.350Z,1.57
2023-04-04T08:22:42.699Z,1.27
2023-04-04T08:25:11.196Z,1.40
2023-04-04T08:27:41.263Z,0.80
2023-04-04T08:30:10.227Z,1.10
2023-04-04T08:32:38.140Z,1.20
2023-04-04T08:35:06.682Z,1.23
2023-04-04T08:37:36.658Z,1.30
2023-04-04T08:40:05.208Z,1.00
2023-04-04T08:42:38.420Z,1.17
2023-04-04T08:45:07.460Z,0.80
2023-04-04T08:47:36.193Z,1.27
2023-04-04T08:50:05.562Z,1.40
2023-04-04T08:52:35.735Z,1.30
2023-04-04T08:55:04.308Z,1.50
2023-04-04T08:57:33.479Z,1.10
2023-04-04T09:00:02.515Z,1.33
2023-04-04T09:02:34.263Z,2.00
2023-04-04T09:05:06.158Z,1.47
2023-04-04T09:07:38.819Z,1.50
2023-04-04T09:10:09.420Z,1.53
2023-04-04T09:12:37.948Z,1.53
2023-04-04T09:15:06.575Z,1.80
2023-04-04T09:17:34.536Z,1.20
2023-04-04T09:20:04.596Z,1.80
2023-04-04T09:22:32.721Z,1.60
2023-04-04T09:25:02.043Z,1.50
2023-04-04T09:27:29.997Z,1.23
2023-04-04T09:29:57.934Z,1.43
2023-04-04T09:32:26.326Z,1.20
2023-04-04T09:34:54.338Z,1.20
2023-04-04T09:37:22.298Z,1.50
2023-04-04T09:39:50.639Z,1.63
2023-04-04T09:42:20.194Z,1.10
2023-04-04T09:44:48.118Z,1.77
2023-04-04T09:49:58.999Z,2.27
2023-04-04T09:52:26.975Z,3.03
2023-04-04T09:54:59.159Z,2.17
2023-04-04T09:57:29.469Z,2.00
2023-04-04T09:59:59.875Z,2.10
2023-04-04T10:02:28.052Z,2.03
2023-04-04T10:05:06.076Z,3.23
2023-04-04T10:07:34.749Z,2.00
2023-04-04T10:10:03.547Z,2.37
2023-04-04T10:12:33.309Z,2.00
2023-04-04T10:15:01.820Z,1.80
2023-04-04T10:17:31.583Z,1.37
2023-04-04T10:20:01.737Z,2.33
2023-04-04T10:22:29.681Z,1.57
2023-04-04T10:24:59.101Z,2.40
2023-04-04T10:27:27.461Z,1.50
2023-04-04T10:29:57.321Z,1.57
2023-04-04T10:32:30.449Z,1.70
2023-04-04T10:35:01.841Z,1.33
2023-04-04T10:37:29.825Z,1.50
2023-04-04T10:40:03.604Z,1.50
2023-04-04T10:42:33.442Z,2.10
2023-04-04T10:45:16.869Z,1.50
2023-04-04T10:47:48.332Z,1.97
2023-04-04T10:50:16.365Z,2.93
2023-04-04T10:52:45.505Z,2.43
2023-04-04T10:55:14.161Z,1.33
2023-04-04T10:57:43.084Z,1.77
2023-04-04T11:00:13.760Z,1.50
2023-04-04T11:02:49.986Z,2.63
2023-04-04T11:05:22.805Z,1.83
2023-04-04T11:08:07.414Z,1.43
2023-04-04T11:10:37.299Z,2.00
2023-04-04T11:13:13.306Z,1.63
2023-04-04T11:15:55.041Z,2.90
2023-04-04T11:18:33.405Z,1.80
2023-04-04T11:21:02.686Z,1.47
2023-04-04T11:23:32.613Z,3.07
2023-04-04T11:26:01.028Z,3.80
2023-04-04T11:28:45.001Z,3.23
2023-04-04T11:31:29.021Z,5.40
2023-04-04T11:33:58.683Z,1.60
2023-04-04T11:36:50.716Z,1.73
2023-04-04T11:39:23.898Z,1.83
2023-04-04T11:41:54.329Z,1.10
2023-04-04T11:44:22.554Z,1.60
2023-04-04T11:46:56.057Z,1.33
2023-04-04T11:49:26.979Z,1.57
2023-04-04T11:51:54.930Z,1.50
2023-04-04T11:54:23.318Z,1.80
2023-04-04T11:56:51.289Z,2.07
2023-04-04T11:59:19.870Z,2.17
2023-04-04T12:01:47.878Z,1.60
2023-04-04T12:04:20.489Z,2.00
2023-04-04T12:06:51.132Z,1.30
2023-04-04T12:09:20.408Z,1.43
2023-04-04T12:11:48.607Z,1.90
2023-04-04T12:14:18.287Z,1.43
2023-04-04T12:16:46.761Z,1.70
2023-04-04T12:19:14.671Z,1.50
2023-04-04T12:21:44.020Z,1.33
2023-04-04T12:24:12.054Z,2.07
2023-04-04T12:26:40.906Z,1.53
2023-04-04T12:29:09.588Z,1.60
2023-04-04T12:31:38.218Z,1.70
2023-04-04T12:34:06.188Z,1.40
2023-04-04T12:36:34.130Z,1.80
2023-04-04T12:39:03.949Z,1.00
2023-04-04T12:41:31.893Z,1.63
2023-04-04T12:44:03.790Z,1.80
2023-04-04T12:46:38.812Z,1.10
2023-04-04T12:49:08.240Z,1.13
2023-04-04T12:51:37.452Z,1.00
2023-04-04T12:54:07.371Z,2.47
2023-04-04T12:56:36.187Z,1.57
2023-04-04T12:59:04.820Z,1.77
2023-04-04T13:01:33.348Z,1.60
2023-04-04T13:04:02.894Z,1.30
2023-04-04T13:06:31.990Z,1.40
2023-04-04T13:09:00.057Z,1.10
2023-04-04T13:11:55.895Z,1.23
2023-04-04T13:14:23.799Z,1.40
2023-04-04T13:17:03.385Z,2.20
2023-04-04T13:19:31.394Z,1.97
2023-04-04T13:21:59.464Z,5.53
2023-04-04T13:24:27.372Z,6.00
2023-04-04T13:26:56.940Z,4.77
2023-04-04T13:29:25.175Z,3.43
2023-04-04T13:31:53.789Z,4.00
2023-04-04T13:34:23.025Z,3.13
2023-04-04T13:36:51.121Z,3.80
2023-04-04T13:39:19.194Z,3.03
2023-04-04T13:41:47.141Z,2.70
2023-04-04T13:44:17.245Z,4.33
2023-04-04T13:46:45.206Z,4.83
2023-04-04T13:49:13.137Z,9.60
2023-04-04T13:51:41.096Z,2.90
2023-04-04T13:54:09.045Z,2.40
2023-04-04T13:56:37.088Z,4.10
2023-04-04T13:59:05.077Z,3.27
2023-04-04T14:01:34.435Z,3.03
2023-04-04T14:04:10.180Z,4.40
2023-04-04T14:06:44.979Z,3.00
2023-04-04T14:09:12.912Z,4.40
2023-04-04T14:11:41.942Z,4.03
2023-04-04T14:14:09.863Z,4.03
2023-04-04T14:16:39.183Z,4.33
2023-04-04T14:19:07.196Z,3.60
2023-04-04T14:21:35.117Z,2.20
2023-04-04T14:24:03.069Z,7.00
2023-04-04T14:26:31.552Z,4.77
2023-04-04T14:29:00.959Z,5.33
2023-04-04T14:31:28.989Z,3.10
2023-04-04T14:33:58.378Z,5.27
2023-04-04T14:36:26.484Z,2.67
2023-04-04T14:38:54.717Z,2.90
2023-04-04T14:41:22.898Z,3.27
2023-04-04T14:43:51.200Z,3.57
2023-04-04T14:46:19.869Z,3.27
2023-04-04T14:48:48.271Z,3.27
2023-04-04T14:51:19.638Z,3.50
2023-04-04T14:53:47.581Z,3.23
2023-04-04T14:56:15.525Z,2.47
2023-04-04T14:58:43.465Z,3.53
2023-04-04T15:01:12.211Z,3.40
2023-04-04T15:03:40.264Z,5.17
2023-04-04T15:06:08.540Z,3.17
2023-04-04T15:08:37.941Z,3.80
2023-04-04T15:11:06.079Z,3.57
2023-04-04T15:13:34.534Z,3.43
2023-04-04T15:16:02.573Z,3.90
2023-04-04T15:18:30.555Z,2.40
2023-04-04T15:20:58.633Z,2.73
2023-04-04T15:23:26.541Z,3.60
2023-04-04T15:25:55.870Z,3.20
2023-04-04T15:28:23.790Z,3.90
2023-04-04T15:30:51.706Z,2.60
2023-04-04T15:33:19.719Z,3.10
2023-04-04T15:35:47.738Z,2.47
2023-04-04T15:38:15.765Z,3.73
2023-04-04T15:40:43.843Z,3.83
2023-04-04T15:43:13.185Z,3.00
2023-04-04T15:45:41.115Z,3.77
2023-04-04T15:48:09.100Z,3.73
2023-04-04T15:50:37.085Z,4.00
2023-04-04T15:53:04.991Z,3.30
2023-04-04T15:55:33.130Z,4.73
2023-04-04T15:58:01.130Z,3.43
2023-04-04T16:00:30.495Z,2.30
2023-04-04T16:02:59.022Z,2.87
2023-04-04T16:05:28.339Z,2.90
2023-04-04T16:07:56.451Z,2.40
2023-04-04T16:10:24.408Z,2.93
2023-04-04T16:12:52.330Z,3.60
2023-04-04T16:15:20.541Z,3.00
2023-04-04T16:17:51.532Z,2.60
2023-04-04T16:20:19.663Z,2.60
2023-04-04T16:22:48.106Z,5.87
2023-04-04T16:25:16.259Z,4.70
2023-04-04T16:27:44.309Z,5.70
2023-04-04T16:30:14.091Z,5.17
2023-04-04T16:32:42.718Z,5.40
2023-04-04T16:35:12.166Z,4.80
2023-04-04T16:37:40.418Z,3.70
2023-04-04T16:40:09.560Z,4.20
2023-04-04T16:42:37.532Z,3.43
2023-04-04T16:45:08.247Z,3.33
2023-04-04T16:47:36.766Z,2.73
2023-04-04T16:50:04.904Z,2.03
2023-04-04T16:52:34.258Z,2.33
2023-04-04T16:55:02.459Z,3.37
2023-04-04T16:57:30.473Z,3.40
2023-04-04T16:59:58.404Z,3.87
2023-04-04T17:02:26.637Z,3.33
2023-04-04T17:04:54.763Z,3.83
2023-04-04T17:07:22.731Z,3.43
2023-04-04T17:09:52.363Z,3.30
2023-04-04T17:12:20.346Z,3.23
2023-04-04T17:14:48.305Z,2.50
2023-04-04T17:17:16.517Z,2.10
2023-04-04T17:19:44.618Z,1.70
2023-04-04T17:22:12.582Z,2.43
2023-04-04T17:24:40.722Z,2.07
2023-04-04T17:27:10.081Z,2.23
2023-04-04T17:29:38.004Z,2.80
2023-04-04T17:32:06.377Z,1.93
2023-04-04T17:34:34.402Z,2.07
2023-04-04T17:37:02.483Z,2.00
2023-04-04T17:39:30.459Z,2.70
2023-04-04T17:41:58.422Z,2.80
2023-04-04T17:44:27.773Z,3.00
2023-04-04T17:46:56.206Z,3.27
2023-04-04T17:49:24.143Z,2.60
2023-04-04T17:51:52.256Z,1.63
2023-04-04T17:54:20.842Z,2.90
2023-04-04T17:56:50.411Z,3.00
2023-04-04T17:59:18.856Z,2.57
2023-04-04T18:01:48.337Z,2.80
2023-04-04T18:04:16.325Z,2.47
2023-04-04T18:06:44.242Z,2.40
2023-04-04T18:09:12.726Z,2.30
2023-04-04T18:11:41.094Z,2.50
2023-04-04T18:14:09.127Z,2.37
2023-04-04T18:16:40.149Z,2.30
2023-04-04T18:19:11.044Z,2.70
2023-04-04T18:21:39.144Z,3.60
2023-04-04T18:24:08.050Z,3.17
2023-04-04T18:26:36.022Z,2.53
2023-04-04T18:29:03.990Z,3.10
2023-04-04T18:31:32.075Z,2.70
2023-04-04T18:34:00.907Z,2.33
2023-04-04T18:36:30.867Z,2.40
2023-04-04T18:38:58.861Z,3.47
2023-04-04T18:41:26.806Z,2.50
2023-04-04T18:43:54.794Z,3.03
2023-04-04T18:46:23.173Z,2.50
2023-04-04T18:48:51.135Z,3.13
2023-04-04T18:51:20.003Z,2.80
2023-04-04T18:53:50.344Z,2.63
2023-04-04T18:56:18.318Z,2.57
2023-04-04T18:58:46.274Z,2.97
2023-04-04T19:01:15.934Z,4.13
2023-04-04T19:03:46.996Z,2.90
2023-04-04T19:06:15.425Z,2.90
2023-04-04T19:08:43.744Z,3.70
2023-04-04T19:11:13.536Z,3.03
2023-04-04T19:13:41.557Z,2.67
2023-04-04T19:16:09.659Z,2.90
2023-04-04T19:18:37.716Z,3.50
2023-04-04T19:21:06.412Z,4.73
2023-04-04T19:23:34.399Z,2.40
2023-04-04T19:26:02.573Z,2.80
2023-04-04T19:28:31.939Z,2.90
2023-04-04T19:31:02.092Z,2.40
2023-04-04T19:33:30.508Z,2.30
2023-04-04T19:36:00.403Z,2.43
2023-04-04T19:38:29.338Z,2.63
2023-04-04T19:40:58.323Z,2.40
2023-04-04T19:43:26.727Z,2.93
2023-04-04T19:45:56.542Z,2.40
2023-04-04T19:48:51.852Z,3.03
2023-04-04T19:51:38.061Z,2.67
2023-04-04T19:54:07.445Z,2.50
2023-04-04T19:56:35.474Z,2.53
2023-04-04T19:59:05.640Z,2.73
2023-04-04T20:01:37.654Z,1.97
2023-04-04T20:04:09.475Z,2.20
2023-04-04T20:06:38.775Z,2.27
2023-04-04T20:09:12.132Z,1.60
2023-04-04T20:11:40.235Z,1.97
2023-04-04T20:14:09.410Z,1.60
2023-04-04T20:16:38.838Z,2.17
2023-04-04T20:19:08.198Z,2.20
2023-04-04T20:21:36.852Z,3.40
2023-04-04T20:24:08.448Z,2.90
2023-04-04T20:26:54.444Z,2.13
2023-04-04T20:29:23.841Z,2.47
2023-04-04T20:31:54.330Z,1.70
2023-04-04T20:34:41.885Z,2.07
2023-04-04T20:37:12.595Z,1.90
2023-04-04T20:39:43.853Z,2.13
2023-04-04T20:42:35.086Z,2.00
2023-04-04T20:45:29.447Z,2.60
2023-04-04T20:48:00.734Z,2.30
2023-04-04T20:50:43.633Z,2.57
2023-04-04T20:53:12.960Z,2.30
2023-04-04T20:55:42.694Z,2.57
2023-04-04T20:58:11.721Z,2.07
2023-04-04T21:00:40.932Z,2.17
2023-04-04T21:03:11.822Z,1.90
2023-04-04T21:05:40.697Z,2.30
2023-04-04T21:08:14.370Z,1.77
2023-04-04T21:10:49.515Z,1.80
2023-04-04T21:13:17.448Z,1.67
2023-04-04T21:15:45.465Z,1.83
2023-04-04T21:18:14.821Z,2.23
2023-04-04T21:21:10.529Z,2.80
2023-04-04T21:23:46.548Z,2.20
2023-04-04T21:26:25.896Z,2.80
2023-04-04T21:28:53.893Z,1.87
2023-04-04T21:31:22.904Z,2.17
2023-04-04T21:33:53.685Z,1.73
2023-04-04T21:36:28.853Z,2.17
2023-04-04T21:38:57.346Z,2.20
2023-04-04T21:41:26.216Z,1.57
2023-04-04T21:43:54.353Z,1.57
2023-04-04T21:46:23.892Z,1.63
2023-04-04T21:48:53.308Z,1.23
2023-04-04T21:51:21.373Z,1.00
2023-04-04T21:53:49.723Z,1.20
2023-04-04T21:56:17.849Z,1.50
2023-04-04T21:58:45.881Z,1.03
2023-04-04T22:01:13.944Z,1.50
2023-04-04T22:03:41.996Z,1.33
2023-04-04T22:06:11.323Z,1.83
2023-04-04T22:08:39.312Z,1.43
2023-04-04T22:11:07.253Z,1.30
2023-04-04T22:13:35.206Z,2.00
2023-04-04T22:16:04.730Z,1.10
2023-04-04T22:18:33.380Z,1.40
2023-04-04T22:21:03.298Z,1.27
2023-04-04T22:23:35.540Z,1.20
2023-04-04T22:26:05.197Z,0.80
2023-04-04T22:28:34.108Z,1.00
2023-04-04T22:31:02.542Z,1.80
2023-04-04T22:33:30.697Z,1.17
2023-04-04T22:35:59.233Z,1.17
2023-04-04T22:38:27.216Z,1.73
2023-04-04T22:40:57.580Z,1.60
2023-04-04T22:43:26.549Z,1.00
2023-04-04T22:45:54.623Z,0.93
2023-04-04T22:48:23.966Z,1.10
2023-04-04T22:50:55.869Z,1.00
2023-04-04T22:53:25.506Z,0.87
2023-04-04T22:55:53.899Z,0.80
2023-04-04T22:58:23.602Z,0.70
2023-04-04T23:00:51.569Z,0.70
2023-04-04T23:03:19.953Z,1.13
2023-04-04T23:05:47.949Z,0.90
2023-04-04T23:08:15.940Z,1.00
2023-04-04T23:10:43.972Z,1.10
2023-04-04T23:13:11.957Z,1.00
2023-04-04T23:15:41.519Z,0.73
2023-04-04T23:18:10.335Z,0.70
2023-04-04T23:20:38.579Z,0.83
2023-04-04T23:23:06.668Z,0.53
2023-04-04T23:25:34.671Z,0.50
2023-04-04T23:28:02.639Z,1.10
2023-04-04T23:30:31.015Z,0.93
2023-04-04T23:33:00.409Z,0.90
2023-04-04T23:35:28.781Z,0.90
2023-04-04T23:37:56.760Z,1.33
2023-04-04T23:40:24.704Z,0.80
2023-04-04T23:42:53.305Z,0.67
2023-04-04T23:45:21.326Z,0.80
2023-04-04T23:47:49.361Z,0.70
2023-04-04T23:50:19.184Z,0.97
2023-04-04T23:52:47.106Z,0.93
2023-04-04T23:55:17.091Z,0.93
2023-04-04T23:57:45.290Z,0.93
